createdAt,value
2022-11-20T00:01:40.500Z,-1.11
2022-11-20T00:04:07.495Z,-1.10
2022-11-20T00:06:34.211Z,-1.09
2022-11-20T00:09:02.818Z,-1.03
2022-11-20T00:11:32.196Z,-1.05
2022-11-20T00:14:02.003Z,-1.11
2022-11-20T00:16:31.157Z,-1.08
2022-11-20T00:18:57.973Z,-1.06
2022-11-20T00:21:26.575Z,-1.02
2022-11-20T00:23:55.425Z,-1.07
2022-11-20T00:26:23.933Z,-1.10
2022-11-20T00:28:52.568Z,-1.00
2022-11-20T00:31:20.931Z,-1.12
2022-11-20T00:33:47.956Z,-1.24
2022-11-20T00:36:16.536Z,-1.47
2022-11-20T00:38:43.847Z,-1.66
2022-11-20T00:41:12.868Z,-1.77
2022-11-20T00:43:39.750Z,-1.86
2022-11-20T00:46:08.320Z,-1.94
2022-11-20T00:48:36.709Z,-1.99
2022-11-20T00:51:03.530Z,-2.01
2022-11-20T00:53:30.268Z,-2.06
2022-11-20T00:55:58.352Z,-2.10
2022-11-20T00:58:26.640Z,-2.12
2022-11-20T01:00:53.555Z,-2.24
2022-11-20T01:03:25.560Z,-2.30
2022-11-20T01:05:55.134Z,-2.43
2022-11-20T01:08:21.934Z,-2.49
2022-11-20T01:10:48.738Z,-2.42
2022-11-20T01:13:41.590Z,-2.34
2022-11-20T01:16:10.481Z,-2.39
2022-11-20T01:18:38.532Z,-2.44
2022-11-20T01:21:10.191Z,-2.50
2022-11-20T01:23:39.579Z,-2.61
2022-11-20T01:26:08.831Z,-2.69
2022-11-20T01:28:35.931Z,-2.75
2022-11-20T01:31:12.114Z,-2.76
2022-11-20T01:33:40.033Z,-2.76
2022-11-20T01:36:09.483Z,-2.56
2022-11-20T01:38:45.245Z,-2.71
2022-11-20T01:41:32.370Z,-2.70
2022-11-20T01:43:59.381Z,-2.68
2022-11-20T01:46:26.317Z,-2.70
2022-11-20T01:48:58.371Z,-2.76
2022-11-20T01:51:30.647Z,-2.75
2022-11-20T01:54:01.625Z,-2.78
2022-11-20T01:56:30.533Z,-2.84
2022-11-20T01:59:02.073Z,-2.81
2022-11-20T02:01:29.284Z,-2.82
2022-11-20T02:03:57.258Z,-2.81
2022-11-20T02:06:29.022Z,-2.80
2022-11-20T02:08:55.981Z,-2.78
2022-11-20T02:11:22.905Z,-2.78
2022-11-20T02:13:50.603Z,-2.76
2022-11-20T02:16:22.353Z,-2.77
2022-11-20T02:18:50.138Z,-2.76
2022-11-20T02:21:29.342Z,-2.66
2022-11-20T02:24:06.922Z,-2.71
2022-11-20T02:26:38.606Z,-2.83
2022-11-20T02:29:05.399Z,-2.82
2022-11-20T02:31:38.233Z,-2.89
2022-11-20T02:34:05.189Z,-2.80
2022-11-20T02:36:33.771Z,-2.82
2022-11-20T02:39:00.984Z,-2.83
2022-11-20T02:41:34.410Z,-2.82
2022-11-20T02:44:01.829Z,-2.84
2022-11-20T02:46:29.237Z,-2.86
2022-11-20T02:48:56.323Z,-2.88
2022-11-20T02:51:23.441Z,-2.89
2022-11-20T02:53:50.301Z,-2.77
2022-11-20T02:56:17.364Z,-2.73
2022-11-20T02:58:45.479Z,-2.77
2022-11-20T03:01:12.545Z,-2.76
2022-11-20T03:03:39.606Z,-2.72
2022-11-20T03:06:07.088Z,-2.67
2022-11-20T03:08:33.879Z,-2.75
2022-11-20T03:11:04.128Z,-2.80
2022-11-20T03:13:31.063Z,-2.88
2022-11-20T03:15:59.258Z,-2.87
2022-11-20T03:18:28.923Z,-2.85
2022-11-20T03:20:58.897Z,-2.93
2022-11-20T03:23:25.761Z,-2.78
2022-11-20T03:25:53.098Z,-2.90
2022-11-20T03:28:19.889Z,-3.03
2022-11-20T03:30:46.843Z,-3.11
2022-11-20T03:33:14.988Z,-3.15
2022-11-20T03:35:41.830Z,-3.20
2022-11-20T03:38:08.563Z,-3.19
2022-11-20T03:40:36.124Z,-3.20
2022-11-20T03:43:02.869Z,-3.20
2022-11-20T03:45:29.619Z,-3.20
2022-11-20T03:47:56.356Z,-3.19
2022-11-20T03:50:24.642Z,-3.11
2022-11-20T03:52:51.328Z,-3.15
2022-11-20T03:55:18.420Z,-3.15
2022-11-20T03:57:45.239Z,-3.04
2022-11-20T04:00:13.412Z,-2.99
2022-11-20T04:02:40.166Z,-2.97
2022-11-20T04:05:07.593Z,-3.00
2022-11-20T04:07:36.542Z,-3.07
2022-11-20T04:10:03.888Z,-3.08
2022-11-20T04:12:33.298Z,-3.14
2022-11-20T04:15:00.146Z,-3.10
2022-11-20T04:17:27.263Z,-3.02
2022-11-20T04:19:54.008Z,-2.98
2022-11-20T04:22:20.735Z,-2.98
2022-11-20T04:24:48.932Z,-3.10
2022-11-20T04:27:15.725Z,-3.21
2022-11-20T04:29:42.486Z,-3.15
2022-11-20T04:32:09.567Z,-3.23
2022-11-20T04:34:36.516Z,-3.23
2022-11-20T04:37:03.199Z,-3.22
2022-11-20T04:39:29.860Z,-3.14
2022-11-20T04:42:16.313Z,-3.17
2022-11-20T04:44:43.110Z,-3.22
2022-11-20T04:47:09.812Z,-3.27
2022-11-20T04:49:36.622Z,-3.35
2022-11-20T04:52:03.618Z,-3.48
2022-11-20T04:54:30.399Z,-3.53
2022-11-20T04:56:58.671Z,-3.58
2022-11-20T04:59:25.452Z,-3.53
2022-11-20T05:01:52.443Z,-3.53
2022-11-20T05:04:19.309Z,-3.45
2022-11-20T05:06:46.675Z,-3.51
2022-11-20T05:09:13.986Z,-3.54
2022-11-20T05:11:40.749Z,-3.55
2022-11-20T05:14:08.961Z,-3.44
2022-11-20T05:16:37.108Z,-3.42
2022-11-20T05:19:03.943Z,-3.48
2022-11-20T05:21:31.538Z,-3.52
2022-11-20T05:23:58.374Z,-3.53
2022-11-20T05:26:25.127Z,-3.57
2022-11-20T05:28:52.890Z,-3.58
2022-11-20T05:31:27.290Z,-3.48
2022-11-20T05:33:55.587Z,-3.43
2022-11-20T05:36:22.374Z,-3.36
2022-11-20T05:38:51.241Z,-3.35
2022-11-20T05:41:20.170Z,-3.36
2022-11-20T05:43:49.074Z,-3.42
2022-11-20T05:46:17.826Z,-3.44
2022-11-20T05:48:47.207Z,-3.40
2022-11-20T05:51:17.194Z,-3.34
2022-11-20T05:53:48.080Z,-3.33
2022-11-20T05:56:17.658Z,-3.29
2022-11-20T05:58:45.030Z,-3.31
2022-11-20T06:01:14.488Z,-3.30
2022-11-20T06:03:43.405Z,-3.29
2022-11-20T06:06:11.486Z,-3.29
2022-11-20T06:08:38.264Z,-3.27
2022-11-20T06:11:06.316Z,-3.26
2022-11-20T06:13:34.031Z,-3.22
2022-11-20T06:16:02.481Z,-3.19
2022-11-20T06:18:31.710Z,-3.20
2022-11-20T06:21:03.797Z,-3.22
2022-11-20T06:23:33.431Z,-3.21
2022-11-20T06:26:03.619Z,-3.19
2022-11-20T06:28:30.908Z,-3.10
2022-11-20T06:30:57.866Z,-3.08
2022-11-20T06:33:25.035Z,-3.05
2022-11-20T06:35:55.575Z,-2.99
2022-11-20T06:38:26.557Z,-2.92
2022-11-20T06:40:54.877Z,-2.93
2022-11-20T06:43:21.964Z,-2.93
2022-11-20T06:45:53.258Z,-2.95
2022-11-20T06:48:20.054Z,-2.97
2022-11-20T06:50:46.785Z,-2.99
2022-11-20T06:53:13.627Z,-2.88
2022-11-20T06:55:43.431Z,-2.80
2022-11-20T06:58:11.669Z,-2.74
2022-11-20T07:00:39.028Z,-2.67
2022-11-20T07:03:06.550Z,-2.56
2022-11-20T07:05:33.804Z,-2.44
2022-11-20T07:08:00.719Z,-2.38
2022-11-20T07:10:27.762Z,-2.34
2022-11-20T07:12:55.047Z,-2.36
2022-11-20T07:15:25.524Z,-2.37
2022-11-20T07:17:53.273Z,-2.37
2022-11-20T07:20:20.082Z,-2.37
2022-11-20T07:22:47.024Z,-2.27
2022-11-20T07:25:13.957Z,-2.20
2022-11-20T07:27:40.847Z,-2.09
2022-11-20T07:30:08.384Z,-2.03
2022-11-20T07:32:37.797Z,-2.02
2022-11-20T07:35:05.314Z,-2.01
2022-11-20T07:37:35.292Z,-2.02
2022-11-20T07:40:02.364Z,-2.20
2022-11-20T07:42:29.449Z,-2.33
2022-11-20T07:44:56.849Z,-2.33
2022-11-20T07:47:23.810Z,-2.28
2022-11-20T07:49:52.622Z,-2.24
2022-11-20T07:52:19.505Z,-2.14
2022-11-20T07:54:46.354Z,-2.02
2022-11-20T07:57:13.200Z,-1.92
2022-11-20T07:59:40.299Z,-1.82
2022-11-20T08:02:07.314Z,-1.74
2022-11-20T08:04:34.292Z,-1.64
2022-11-20T08:07:02.675Z,-1.60
2022-11-20T08:09:30.082Z,-1.39
2022-11-20T08:12:15.351Z,-1.26
2022-11-20T08:14:42.163Z,-1.17
2022-11-20T08:17:09.018Z,-1.11
2022-11-20T08:19:35.880Z,-1.06
2022-11-20T08:22:04.165Z,-0.99
2022-11-20T08:24:31.199Z,-1.01
2022-11-20T08:26:58.695Z,-0.94
2022-11-20T08:29:25.666Z,-0.80
2022-11-20T08:31:52.509Z,-0.81
2022-11-20T08:34:19.829Z,-0.75
2022-11-20T08:36:46.807Z,-0.74
2022-11-20T08:39:15.637Z,-0.70
2022-11-20T08:41:42.532Z,-0.70
2022-11-20T08:44:09.887Z,-0.63
2022-11-20T08:46:38.442Z,-0.54
2022-11-20T08:49:05.892Z,-0.46
2022-11-20T08:51:33.544Z,-0.42
2022-11-20T08:54:00.472Z,-0.32
2022-11-20T08:56:28.950Z,-0.29
2022-11-20T08:59:18.285Z,-0.27
2022-11-20T09:01:42.527Z,-0.22
2022-11-20T09:04:09.467Z,-0.20
2022-11-20T09:06:36.297Z,-0.21
2022-11-20T09:09:06.607Z,-0.17
2022-11-20T09:11:36.112Z,-0.14
2022-11-20T09:14:03.894Z,-0.19
2022-11-20T09:16:30.776Z,-0.30
2022-11-20T09:19:28.122Z,-0.32
2022-11-20T09:21:44.412Z,-0.28
2022-11-20T09:24:11.490Z,-0.19
2022-11-20T09:26:39.729Z,-0.18
2022-11-20T09:29:06.952Z,-0.15
2022-11-20T09:34:17.988Z,-0.04
2022-11-20T09:36:45.046Z,0.02
2022-11-20T09:39:11.987Z,0.16
2022-11-20T09:42:10.698Z,0.17
2022-11-20T09:44:50.961Z,0.36
2022-11-20T09:47:28.383Z,0.48
2022-11-20T09:50:08.165Z,0.63
2022-11-20T09:52:47.116Z,0.73
2022-11-20T09:55:15.943Z,0.77
2022-11-20T09:57:48.222Z,0.81
2022-11-20T10:00:16.583Z,0.93
2022-11-20T10:02:49.410Z,1.08
2022-11-20T10:05:19.913Z,1.06
2022-11-20T10:07:56.360Z,1.19
2022-11-20T10:10:38.582Z,1.37
2022-11-20T10:13:26.299Z,1.57
2022-11-20T10:16:03.747Z,1.77
2022-11-20T10:18:43.949Z,1.79
2022-11-20T10:21:20.327Z,1.82
2022-11-20T10:24:00.904Z,1.85
2022-11-20T10:26:35.118Z,1.93
2022-11-20T10:29:11.754Z,2.17
2022-11-20T10:31:41.250Z,2.34
2022-11-20T10:34:22.617Z,2.50
2022-11-20T10:36:56.325Z,2.62
2022-11-20T10:39:32.757Z,2.56
2022-11-20T10:42:01.792Z,2.69
2022-11-20T10:44:55.162Z,2.63
2022-11-20T10:47:23.599Z,2.74
2022-11-20T10:49:54.477Z,2.83
2022-11-20T10:52:29.927Z,2.86
2022-11-20T10:55:05.241Z,2.99
2022-11-20T10:57:47.982Z,3.06
2022-11-20T11:00:18.264Z,2.72
2022-11-20T11:02:48.664Z,2.55
2022-11-20T11:05:36.263Z,2.47
2022-11-20T11:08:05.815Z,2.40
2022-11-20T11:10:42.363Z,2.37
2022-11-20T11:13:22.982Z,2.28
2022-11-20T11:15:54.912Z,2.31
2022-11-20T11:18:27.328Z,2.32
2022-11-20T11:20:55.251Z,2.28
2022-11-20T11:23:33.373Z,2.33
2022-11-20T11:26:06.311Z,2.32
2022-11-20T11:28:36.563Z,2.22
2022-11-20T11:31:09.639Z,2.26
2022-11-20T11:33:37.008Z,2.25
2022-11-20T11:36:17.786Z,2.23
2022-11-20T11:38:45.303Z,2.24
2022-11-20T11:41:17.710Z,2.21
2022-11-20T11:44:12.144Z,2.25
2022-11-20T11:46:45.277Z,2.22
2022-11-20T11:49:18.768Z,2.27
2022-11-20T11:52:01.358Z,2.26
2022-11-20T11:54:33.584Z,2.24
2022-11-20T11:57:02.984Z,2.17
2022-11-20T11:59:40.180Z,2.21
2022-11-20T12:05:21.476Z,2.19
2022-11-20T12:07:50.736Z,2.15
2022-11-20T12:10:23.204Z,2.15
2022-11-20T12:13:32.281Z,2.09
2022-11-20T12:16:00.129Z,2.13
2022-11-20T12:18:29.610Z,2.18
2022-11-20T12:21:07.088Z,2.22
2022-11-20T12:23:46.836Z,2.30
2022-11-20T12:26:36.460Z,2.39
2022-11-20T12:29:12.115Z,2.48
2022-11-20T12:31:48.510Z,2.64
2022-11-20T12:34:32.566Z,2.76
2022-11-20T12:37:13.058Z,2.80
2022-11-20T12:39:42.764Z,2.81
2022-11-20T12:42:45.709Z,2.76
2022-11-20T12:45:35.457Z,2.59
2022-11-20T12:48:16.856Z,2.60
2022-11-20T12:51:14.721Z,2.63
2022-11-20T12:53:52.386Z,2.61
2022-11-20T12:56:30.731Z,2.57
2022-11-20T12:59:10.356Z,2.60
2022-11-20T13:01:45.672Z,2.72
2022-11-20T13:04:25.843Z,2.58
2022-11-20T13:06:56.157Z,2.52
2022-11-20T13:09:24.837Z,2.51
2022-11-20T13:12:09.904Z,2.42
2022-11-20T13:14:41.254Z,2.41
2022-11-20T13:17:14.103Z,2.26
2022-11-20T13:19:41.270Z,2.21
2022-11-20T13:22:10.664Z,2.21
2022-11-20T13:24:37.518Z,2.16
2022-11-20T13:27:20.479Z,2.18
2022-11-20T13:30:01.465Z,2.16
2022-11-20T13:32:33.056Z,2.19
2022-11-20T13:35:01.840Z,2.21
2022-11-20T13:37:33.015Z,2.17
2022-11-20T13:40:23.246Z,2.16
2022-11-20T13:42:58.325Z,2.18
2022-11-20T13:45:27.980Z,2.21
2022-11-20T13:47:55.695Z,2.18
2022-11-20T13:50:39.815Z,2.20
2022-11-20T13:53:22.871Z,2.18
2022-11-20T13:55:55.803Z,2.21
2022-11-20T13:58:33.583Z,2.14
2022-11-20T14:01:10.223Z,2.19
2022-11-20T14:04:04.681Z,2.18
2022-11-20T14:06:28.530Z,2.22
2022-11-20T14:08:57.711Z,2.26
2022-11-20T14:11:26.504Z,2.28
2022-11-20T14:13:56.211Z,2.29
2022-11-20T14:16:23.069Z,2.29
2022-11-20T14:18:50.332Z,2.27
2022-11-20T14:21:24.317Z,2.30
2022-11-20T14:23:54.170Z,2.27
2022-11-20T14:26:25.369Z,2.27
2022-11-20T14:28:53.019Z,2.27
2022-11-20T14:31:25.159Z,2.28
2022-11-20T14:33:54.294Z,2.26
2022-11-20T15:55:09.403Z,1.92
2022-11-20T16:23:47.284Z,1.84
2022-11-20T16:26:17.981Z,1.81
2022-11-20T16:28:49.537Z,1.79
2022-11-20T16:31:23.330Z,1.75
2022-11-20T16:33:52.381Z,1.75
2022-11-20T16:36:20.664Z,1.75
2022-11-20T16:41:33.028Z,1.77
2022-11-20T16:44:01.490Z,1.76
2022-11-20T16:46:32.378Z,1.76
2022-11-20T16:52:03.854Z,1.76
2022-11-20T17:22:19.004Z,1.80
2022-11-20T17:50:32.194Z,2.10
2022-11-20T17:52:59.127Z,2.11
2022-11-20T17:55:26.063Z,2.13
2022-11-20T17:57:52.903Z,2.17
2022-11-20T18:00:20.247Z,2.18
2022-11-20T18:02:47.466Z,2.21
2022-11-20T18:05:15.776Z,2.25
2022-11-20T18:07:44.365Z,2.30
2022-11-20T18:10:11.431Z,2.26
2022-11-20T18:12:38.406Z,2.31
2022-11-20T18:15:05.856Z,2.35
2022-11-20T18:17:32.674Z,2.36
2022-11-20T18:20:28.291Z,2.35
2022-11-20T18:22:47.701Z,2.37
2022-11-20T18:25:14.613Z,2.39
2022-11-20T18:27:41.632Z,2.37
2022-11-20T18:30:11.139Z,2.32
2022-11-20T18:32:38.350Z,2.31
2022-11-20T18:35:06.174Z,2.27
2022-11-20T18:37:32.929Z,2.27
2022-11-20T18:40:01.187Z,2.23
2022-11-20T18:42:46.300Z,2.15
2022-11-20T18:45:13.152Z,2.00
2022-11-20T18:47:40.405Z,2.04
2022-11-20T18:50:08.846Z,2.02
2022-11-20T18:52:39.907Z,1.99
2022-11-20T18:55:09.000Z,1.96
2022-11-20T18:57:36.493Z,1.93
2022-11-20T19:00:09.339Z,1.65
2022-11-20T19:02:41.606Z,1.83
2022-11-20T19:05:16.177Z,1.80
2022-11-20T19:07:43.350Z,1.82
2022-11-20T19:10:12.456Z,1.77
2022-11-20T19:12:40.115Z,1.70
2022-11-20T19:15:07.712Z,1.61
2022-11-20T19:17:34.824Z,1.51
2022-11-20T19:20:01.655Z,1.53
2022-11-20T19:22:28.468Z,1.54
2022-11-20T19:24:55.399Z,1.49
2022-11-20T19:27:23.843Z,1.46
2022-11-20T19:29:50.576Z,1.44
2022-11-20T19:32:17.498Z,1.36
2022-11-20T19:34:44.302Z,1.32
2022-11-20T19:37:11.177Z,1.29
2022-11-20T19:39:38.018Z,1.25
2022-11-20T19:42:05.906Z,1.22
2022-11-20T19:44:34.267Z,1.21
2022-11-20T19:47:03.232Z,1.14
2022-11-20T19:49:30.132Z,1.23
2022-11-20T19:51:57.124Z,1.25
2022-11-20T19:54:24.134Z,1.29
2022-11-20T19:56:51.000Z,1.31
2022-11-20T19:59:17.870Z,1.36
2022-11-20T20:01:46.288Z,1.36
2022-11-20T20:04:14.138Z,1.38
2022-11-20T20:06:41.823Z,1.33
2022-11-20T20:09:18.589Z,1.36
2022-11-20T20:14:29.641Z,1.32
2022-11-20T20:16:58.127Z,1.33
2022-11-20T20:19:25.560Z,1.32
2022-11-20T20:21:52.734Z,1.31
2022-11-20T20:24:20.041Z,1.34
2022-11-20T20:26:46.945Z,1.35
2022-11-20T20:29:13.907Z,1.36
2022-11-20T20:31:40.915Z,1.32
2022-11-20T20:34:09.118Z,1.37
2022-11-20T20:36:35.989Z,1.36
2022-11-20T20:39:03.092Z,1.36
2022-11-20T20:41:30.295Z,1.39
2022-11-20T20:44:15.922Z,1.38
2022-11-20T20:46:43.934Z,1.46
2022-11-20T20:49:12.330Z,1.50
2022-11-20T20:51:39.257Z,1.48
2022-11-20T20:54:06.268Z,1.56
2022-11-20T20:56:33.122Z,1.58
2022-11-20T20:58:59.913Z,1.61
2022-11-20T21:01:28.880Z,1.64
2022-11-20T21:03:56.548Z,1.65
2022-11-20T21:06:25.010Z,1.68
2022-11-20T21:08:51.806Z,1.69
2022-11-20T21:11:20.377Z,1.69
2022-11-20T21:13:48.335Z,1.68
2022-11-20T21:16:16.803Z,1.73
2022-11-20T21:18:44.316Z,1.71
2022-11-20T21:21:33.172Z,1.70
2022-11-20T21:24:02.705Z,1.71
2022-11-20T21:29:11.707Z,1.73
2022-11-20T22:02:39.269Z,1.65
2022-11-20T22:05:09.066Z,1.67
2022-11-20T22:10:25.115Z,1.73
